sensor_id;sensor_type;location;lat;lon;timestamp;P1;durP1;ratioP1;P2;durP2;ratioP2
24084;SDS011;12268;52.110;5.548;2023-07-28T00:00:12;32.72;;;16.45;;
24084;SDS011;12268;52.110;5.548;2023-07-28T00:02:38;29.85;;;15.75;;
24084;SDS011;12268;52.110;5.548;2023-07-28T00:05:03;30.80;;;16.60;;
24084;SDS011;12268;52.110;5.548;2023-07-28T00:07:29;30.95;;;16.83;;
24084;SDS011;12268;52.110;5.548;2023-07-28T00:09:55;31.02;;;17.10;;
24084;SDS011;12268;52.110;5.548;2023-07-28T00:12:20;33.30;;;17.42;;
24084;SDS011;12268;52.110;5.548;2023-07-28T00:14:47;31.85;;;16.90;;
24084;SDS011;12268;52.110;5.548;2023-07-28T00:17:12;33.08;;;16.75;;
24084;SDS011;12268;52.110;5.548;2023-07-28T00:19:38;33.20;;;16.90;;
24084;SDS011;12268;52.110;5.548;2023-07-28T00:22:03;36.95;;;17.85;;
24084;SDS011;12268;52.110;5.548;2023-07-28T00:24:29;35.72;;;17.27;;
24084;SDS011;12268;52.110;5.548;2023-07-28T00:26:54;38.08;;;18.80;;
24084;SDS011;12268;52.110;5.548;2023-07-28T00:29:20;35.92;;;17.73;;
24084;SDS011;12268;52.110;5.548;2023-07-28T00:31:45;40.67;;;17.45;;
24084;SDS011;12268;52.110;5.548;2023-07-28T00:34:11;36.33;;;17.10;;
24084;SDS011;12268;52.110;5.548;2023-07-28T00:36:36;36.55;;;18.20;;
24084;SDS011;12268;52.110;5.548;2023-07-28T00:39:02;43.60;;;19.00;;
24084;SDS011;12268;52.110;5.548;2023-07-28T00:41:28;37.00;;;18.83;;
24084;SDS011;12268;52.110;5.548;2023-07-28T00:43:53;39.58;;;20.27;;
24084;SDS011;12268;52.110;5.548;2023-07-28T00:46:19;39.60;;;19.05;;
24084;SDS011;12268;52.110;5.548;2023-07-28T00:48:44;35.70;;;18.65;;
24084;SDS011;12268;52.110;5.548;2023-07-28T00:51:10;34.67;;;18.73;;
24084;SDS011;12268;52.110;5.548;2023-07-28T00:53:36;32.90;;;16.58;;
24084;SDS011;12268;52.110;5.548;2023-07-28T00:56:02;38.88;;;19.15;;
24084;SDS011;12268;52.110;5.548;2023-07-28T00:58:29;36.28;;;18.77;;
24084;SDS011;12268;52.110;5.548;2023-07-28T01:00:55;42.75;;;20.65;;
24084;SDS011;12268;52.110;5.548;2023-07-28T01:03:21;37.25;;;19.80;;
24084;SDS011;12268;52.110;5.548;2023-07-28T01:08:38;34.72;;;19.73;;
24084;SDS011;12268;52.110;5.548;2023-07-28T01:11:11;34.75;;;18.90;;
24084;SDS011;12268;52.110;5.548;2023-07-28T01:13:36;29.30;;;16.63;;
24084;SDS011;12268;52.110;5.548;2023-07-28T01:16:02;35.97;;;16.63;;
24084;SDS011;12268;52.110;5.548;2023-07-28T01:18:28;31.05;;;15.73;;
24084;SDS011;12268;52.110;5.548;2023-07-28T01:20:54;37.55;;;16.67;;
24084;SDS011;12268;52.110;5.548;2023-07-28T01:23:42;33.17;;;16.48;;
24084;SDS011;12268;52.110;5.548;2023-07-28T01:26:16;32.92;;;16.38;;
24084;SDS011;12268;52.110;5.548;2023-07-28T01:28:56;35.47;;;16.13;;
24084;SDS011;12268;52.110;5.548;2023-07-28T01:31:24;38.75;;;16.27;;
24084;SDS011;12268;52.110;5.548;2023-07-28T01:33:50;32.97;;;14.65;;
24084;SDS011;12268;52.110;5.548;2023-07-28T01:36:15;31.15;;;14.35;;
24084;SDS011;12268;52.110;5.548;2023-07-28T01:38:41;30.10;;;15.65;;
24084;SDS011;12268;52.110;5.548;2023-07-28T01:41:06;30.08;;;15.75;;
24084;SDS011;12268;52.110;5.548;2023-07-28T01:43:32;29.88;;;14.77;;
24084;SDS011;12268;52.110;5.548;2023-07-28T01:45:57;34.20;;;17.42;;
24084;SDS011;12268;52.110;5.548;2023-07-28T01:48:23;32.67;;;17.05;;
24084;SDS011;12268;52.110;5.548;2023-07-28T01:50:48;38.42;;;18.25;;
24084;SDS011;12268;52.110;5.548;2023-07-28T01:53:14;41.15;;;19.10;;
24084;SDS011;12268;52.110;5.548;2023-07-28T01:55:39;34.53;;;18.58;;
24084;SDS011;12268;52.110;5.548;2023-07-28T01:58:05;43.42;;;20.42;;
24084;SDS011;12268;52.110;5.548;2023-07-28T02:00:30;39.80;;;19.75;;
24084;SDS011;12268;52.110;5.548;2023-07-28T02:02:56;45.50;;;21.23;;
24084;SDS011;12268;52.110;5.548;2023-07-28T02:05:23;41.03;;;19.95;;
24084;SDS011;12268;52.110;5.548;2023-07-28T02:07:48;41.20;;;21.58;;
24084;SDS011;12268;52.110;5.548;2023-07-28T02:10:14;47.92;;;21.65;;
24084;SDS011;12268;52.110;5.548;2023-07-28T02:12:39;44.80;;;21.15;;
24084;SDS011;12268;52.110;5.548;2023-07-28T02:15:05;50.17;;;22.67;;
24084;SDS011;12268;52.110;5.548;2023-07-28T02:17:32;45.58;;;23.08;;
24084;SDS011;12268;52.110;5.548;2023-07-28T02:19:58;47.88;;;23.13;;
24084;SDS011;12268;52.110;5.548;2023-07-28T02:22:23;45.63;;;22.50;;
24084;SDS011;12268;52.110;5.548;2023-07-28T02:24:49;47.35;;;23.48;;
24084;SDS011;12268;52.110;5.548;2023-07-28T02:27:14;49.28;;;23.25;;
24084;SDS011;12268;52.110;5.548;2023-07-28T02:29:40;45.70;;;21.67;;
24084;SDS011;12268;52.110;5.548;2023-07-28T02:32:07;43.35;;;20.25;;
24084;SDS011;12268;52.110;5.548;2023-07-28T02:34:32;50.97;;;22.08;;
24084;SDS011;12268;52.110;5.548;2023-07-28T02:36:58;46.13;;;21.08;;
24084;SDS011;12268;52.110;5.548;2023-07-28T02:39:23;50.67;;;21.60;;
24084;SDS011;12268;52.110;5.548;2023-07-28T02:41:49;51.55;;;22.23;;
24084;SDS011;12268;52.110;5.548;2023-07-28T02:44:15;66.63;;;25.00;;
24084;SDS011;12268;52.110;5.548;2023-07-28T02:46:40;58.67;;;22.73;;
24084;SDS011;12268;52.110;5.548;2023-07-28T02:49:06;56.92;;;24.75;;
24084;SDS011;12268;52.110;5.548;2023-07-28T02:51:31;57.47;;;25.50;;
24084;SDS011;12268;52.110;5.548;2023-07-28T02:53:59;55.70;;;24.65;;
24084;SDS011;12268;52.110;5.548;2023-07-28T02:56:25;61.67;;;25.65;;
24084;SDS011;12268;52.110;5.548;2023-07-28T02:58:50;64.75;;;24.65;;
24084;SDS011;12268;52.110;5.548;2023-07-28T03:01:16;60.92;;;25.50;;
24084;SDS011;12268;52.110;5.548;2023-07-28T03:03:42;63.20;;;25.75;;
24084;SDS011;12268;52.110;5.548;2023-07-28T03:06:07;72.28;;;26.92;;
24084;SDS011;12268;52.110;5.548;2023-07-28T03:08:33;66.60;;;26.55;;
24084;SDS011;12268;52.110;5.548;2023-07-28T03:10:59;70.28;;;27.42;;
24084;SDS011;12268;52.110;5.548;2023-07-28T03:13:27;69.15;;;26.67;;
24084;SDS011;12268;52.110;5.548;2023-07-28T03:15:53;69.72;;;26.23;;
24084;SDS011;12268;52.110;5.548;2023-07-28T03:18:19;67.78;;;27.80;;
24084;SDS011;12268;52.110;5.548;2023-07-28T03:20:45;66.18;;;27.48;;
24084;SDS011;12268;52.110;5.548;2023-07-28T03:23:11;75.28;;;28.63;;
24084;SDS011;12268;52.110;5.548;2023-07-28T03:25:37;73.75;;;27.15;;
24084;SDS011;12268;52.110;5.548;2023-07-28T03:28:02;69.80;;;26.52;;
24084;SDS011;12268;52.110;5.548;2023-07-28T03:30:28;68.68;;;26.77;;
24084;SDS011;12268;52.110;5.548;2023-07-28T03:32:53;70.30;;;28.35;;
24084;SDS011;12268;52.110;5.548;2023-07-28T03:35:19;80.53;;;30.42;;
24084;SDS011;12268;52.110;5.548;2023-07-28T03:37:45;69.90;;;28.60;;
24084;SDS011;12268;52.110;5.548;2023-07-28T03:40:10;73.70;;;28.63;;
24084;SDS011;12268;52.110;5.548;2023-07-28T03:42:36;69.95;;;26.40;;
24084;SDS011;12268;52.110;5.548;2023-07-28T03:45:01;77.40;;;26.75;;
24084;SDS011;12268;52.110;5.548;2023-07-28T03:47:28;75.30;;;30.30;;
24084;SDS011;12268;52.110;5.548;2023-07-28T03:49:53;76.15;;;28.52;;
24084;SDS011;12268;52.110;5.548;2023-07-28T03:52:19;87.85;;;29.67;;
24084;SDS011;12268;52.110;5.548;2023-07-28T03:54:44;81.53;;;29.83;;
24084;SDS011;12268;52.110;5.548;2023-07-28T03:57:10;85.05;;;30.00;;
24084;SDS011;12268;52.110;5.548;2023-07-28T03:59:35;86.95;;;29.08;;
24084;SDS011;12268;52.110;5.548;2023-07-28T04:02:01;87.03;;;29.60;;
24084;SDS011;12268;52.110;5.548;2023-07-28T04:04:26;86.57;;;29.48;;
24084;SDS011;12268;52.110;5.548;2023-07-28T04:06:52;91.53;;;29.42;;
24084;SDS011;12268;52.110;5.548;2023-07-28T04:09:18;93.80;;;30.48;;
24084;SDS011;12268;52.110;5.548;2023-07-28T04:11:44;91.80;;;30.75;;
24084;SDS011;12268;52.110;5.548;2023-07-28T04:14:10;82.57;;;29.45;;
24084;SDS011;12268;52.110;5.548;2023-07-28T04:16:36;91.43;;;30.33;;
24084;SDS011;12268;52.110;5.548;2023-07-28T04:19:01;98.25;;;31.00;;
24084;SDS011;12268;52.110;5.548;2023-07-28T04:21:27;93.38;;;29.70;;
24084;SDS011;12268;52.110;5.548;2023-07-28T04:23:52;96.03;;;29.88;;
24084;SDS011;12268;52.110;5.548;2023-07-28T04:26:18;96.70;;;29.58;;
24084;SDS011;12268;52.110;5.548;2023-07-28T04:28:44;102.78;;;31.60;;
24084;SDS011;12268;52.110;5.548;2023-07-28T04:31:10;99.72;;;28.77;;
24084;SDS011;12268;52.110;5.548;2023-07-28T04:33:36;83.97;;;29.90;;
24084;SDS011;12268;52.110;5.548;2023-07-28T04:36:02;94.65;;;29.25;;
24084;SDS011;12268;52.110;5.548;2023-07-28T06:42:56;43.63;;;23.75;;
24084;SDS011;12268;52.110;5.548;2023-07-28T06:45:29;45.38;;;23.50;;
24084;SDS011;12268;52.110;5.548;2023-07-28T06:47:58;47.80;;;24.73;;
24084;SDS011;12268;52.110;5.548;2023-07-28T06:50:23;45.35;;;23.92;;
24084;SDS011;12268;52.110;5.548;2023-07-28T06:52:49;39.65;;;22.45;;
24084;SDS011;12268;52.110;5.548;2023-07-28T06:55:15;38.35;;;22.15;;
24084;SDS011;12268;52.110;5.548;2023-07-28T06:57:45;43.60;;;23.50;;
24084;SDS011;12268;52.110;5.548;2023-07-28T07:00:11;45.42;;;24.30;;
24084;SDS011;12268;52.110;5.548;2023-07-28T07:02:37;44.13;;;24.83;;
24084;SDS011;12268;52.110;5.548;2023-07-28T07:05:03;45.03;;;24.20;;
24084;SDS011;12268;52.110;5.548;2023-07-28T07:07:29;44.35;;;24.20;;
24084;SDS011;12268;52.110;5.548;2023-07-28T07:09:57;44.83;;;24.60;;
24084;SDS011;12268;52.110;5.548;2023-07-28T07:12:22;46.13;;;23.92;;
24084;SDS011;12268;52.110;5.548;2023-07-28T07:14:48;42.90;;;23.70;;
24084;SDS011;12268;52.110;5.548;2023-07-28T07:17:13;40.10;;;22.45;;
24084;SDS011;12268;52.110;5.548;2023-07-28T07:19:39;43.53;;;23.10;;
24084;SDS011;12268;52.110;5.548;2023-07-28T07:22:05;42.17;;;22.33;;
24084;SDS011;12268;52.110;5.548;2023-07-28T07:24:31;39.30;;;21.08;;
24084;SDS011;12268;52.110;5.548;2023-07-28T07:26:57;39.13;;;22.15;;
24084;SDS011;12268;52.110;5.548;2023-07-28T07:29:22;35.10;;;21.02;;
24084;SDS011;12268;52.110;5.548;2023-07-28T07:31:48;42.45;;;20.92;;
24084;SDS011;12268;52.110;5.548;2023-07-28T07:34:14;39.03;;;19.73;;
24084;SDS011;12268;52.110;5.548;2023-07-28T07:36:39;38.15;;;19.10;;
24084;SDS011;12268;52.110;5.548;2023-07-28T07:39:05;31.52;;;18.60;;
24084;SDS011;12268;52.110;5.548;2023-07-28T07:41:31;33.22;;;18.05;;
24084;SDS011;12268;52.110;5.548;2023-07-28T07:43:57;29.85;;;16.60;;
24084;SDS011;12268;52.110;5.548;2023-07-28T07:46:24;29.40;;;15.60;;
24084;SDS011;12268;52.110;5.548;2023-07-28T07:48:49;26.73;;;15.15;;
24084;SDS011;12268;52.110;5.548;2023-07-28T07:51:17;29.73;;;15.85;;
24084;SDS011;12268;52.110;5.548;2023-07-28T07:53:43;28.23;;;14.85;;
24084;SDS011;12268;52.110;5.548;2023-07-28T07:56:09;25.55;;;15.05;;
24084;SDS011;12268;52.110;5.548;2023-07-28T07:58:35;25.80;;;14.52;;
24084;SDS011;12268;52.110;5.548;2023-07-28T08:01:01;28.77;;;14.65;;
24084;SDS011;12268;52.110;5.548;2023-07-28T08:03:27;28.95;;;14.43;;
24084;SDS011;12268;52.110;5.548;2023-07-28T08:05:53;27.40;;;15.25;;
24084;SDS011;12268;52.110;5.548;2023-07-28T08:08:19;26.98;;;15.68;;
24084;SDS011;12268;52.110;5.548;2023-07-28T08:10:45;30.98;;;14.25;;
24084;SDS011;12268;52.110;5.548;2023-07-28T08:13:12;28.80;;;13.63;;
24084;SDS011;12268;52.110;5.548;2023-07-28T08:15:38;23.30;;;13.48;;
24084;SDS011;12268;52.110;5.548;2023-07-28T08:18:03;25.77;;;13.65;;
24084;SDS011;12268;52.110;5.548;2023-07-28T08:20:29;24.90;;;13.52;;
24084;SDS011;12268;52.110;5.548;2023-07-28T08:22:55;26.88;;;12.38;;
24084;SDS011;12268;52.110;5.548;2023-07-28T08:25:20;21.40;;;12.25;;
24084;SDS011;12268;52.110;5.548;2023-07-28T08:27:48;26.90;;;13.85;;
24084;SDS011;12268;52.110;5.548;2023-07-28T08:30:14;22.02;;;10.60;;
24084;SDS011;12268;52.110;5.548;2023-07-28T08:32:40;21.52;;;11.30;;
24084;SDS011;12268;52.110;5.548;2023-07-28T08:35:06;23.75;;;11.63;;
24084;SDS011;12268;52.110;5.548;2023-07-28T08:37:33;19.52;;;11.57;;
24084;SDS011;12268;52.110;5.548;2023-07-28T08:39:58;23.65;;;11.95;;
24084;SDS011;12268;52.110;5.548;2023-07-28T08:42:24;21.30;;;10.63;;
24084;SDS011;12268;52.110;5.548;2023-07-28T08:44:50;22.65;;;12.00;;
24084;SDS011;12268;52.110;5.548;2023-07-28T08:47:17;20.60;;;10.40;;
24084;SDS011;12268;52.110;5.548;2023-07-28T08:49:43;19.25;;;10.90;;
24084;SDS011;12268;52.110;5.548;2023-07-28T08:52:15;16.55;;;10.38;;
24084;SDS011;12268;52.110;5.548;2023-07-28T08:54:41;21.45;;;10.93;;
24084;SDS011;12268;52.110;5.548;2023-07-28T08:57:08;20.67;;;10.65;;
24084;SDS011;12268;52.110;5.548;2023-07-28T08:59:35;16.42;;;9.30;;
24084;SDS011;12268;52.110;5.548;2023-07-28T09:02:01;19.05;;;10.15;;
24084;SDS011;12268;52.110;5.548;2023-07-28T09:04:27;20.63;;;11.00;;
24084;SDS011;12268;52.110;5.548;2023-07-28T09:06:53;18.88;;;10.35;;
24084;SDS011;12268;52.110;5.548;2023-07-28T09:09:22;14.95;;;8.80;;
24084;SDS011;12268;52.110;5.548;2023-07-28T09:11:51;20.90;;;9.50;;
24084;SDS011;12268;52.110;5.548;2023-07-28T09:14:18;14.43;;;8.23;;
24084;SDS011;12268;52.110;5.548;2023-07-28T09:16:46;16.58;;;7.25;;
24084;SDS011;12268;52.110;5.548;2023-07-28T09:19:13;15.13;;;6.63;;
24084;SDS011;12268;52.110;5.548;2023-07-28T09:21:39;12.50;;;6.45;;
24084;SDS011;12268;52.110;5.548;2023-07-28T09:24:07;7.85;;;5.53;;
24084;SDS011;12268;52.110;5.548;2023-07-28T09:26:39;7.57;;;5.15;;
24084;SDS011;12268;52.110;5.548;2023-07-28T09:29:12;11.73;;;6.32;;
24084;SDS011;12268;52.110;5.548;2023-07-28T09:31:42;12.48;;;6.03;;
24084;SDS011;12268;52.110;5.548;2023-07-28T09:34:08;9.32;;;6.03;;
24084;SDS011;12268;52.110;5.548;2023-07-28T09:36:35;11.88;;;5.50;;
24084;SDS011;12268;52.110;5.548;2023-07-28T09:39:03;11.63;;;4.93;;
24084;SDS011;12268;52.110;5.548;2023-07-28T09:41:32;11.73;;;5.70;;
24084;SDS011;12268;52.110;5.548;2023-07-28T09:44:00;10.27;;;5.72;;
24084;SDS011;12268;52.110;5.548;2023-07-28T09:46:27;10.98;;;5.88;;
24084;SDS011;12268;52.110;5.548;2023-07-28T09:48:55;11.02;;;5.88;;
24084;SDS011;12268;52.110;5.548;2023-07-28T09:51:22;9.05;;;5.95;;
24084;SDS011;12268;52.110;5.548;2023-07-28T09:54:04;14.07;;;5.88;;
24084;SDS011;12268;52.110;5.548;2023-07-28T09:56:31;9.00;;;5.60;;
24084;SDS011;12268;52.110;5.548;2023-07-28T09:58:57;14.70;;;5.55;;
24084;SDS011;12268;52.110;5.548;2023-07-28T10:01:26;13.13;;;5.03;;
24084;SDS011;12268;52.110;5.548;2023-07-28T10:03:53;10.57;;;5.65;;
24084;SDS011;12268;52.110;5.548;2023-07-28T10:06:19;11.68;;;5.75;;
24084;SDS011;12268;52.110;5.548;2023-07-28T10:08:47;9.88;;;5.82;;
24084;SDS011;12268;52.110;5.548;2023-07-28T10:11:14;9.82;;;6.45;;
24084;SDS011;12268;52.110;5.548;2023-07-28T10:13:41;10.45;;;6.47;;
24084;SDS011;12268;52.110;5.548;2023-07-28T10:16:09;8.77;;;6.25;;
24084;SDS011;12268;52.110;5.548;2023-07-28T10:18:35;15.20;;;6.75;;
24084;SDS011;12268;52.110;5.548;2023-07-28T10:21:05;9.90;;;6.40;;
24084;SDS011;12268;52.110;5.548;2023-07-28T10:23:33;11.52;;;7.57;;
24084;SDS011;12268;52.110;5.548;2023-07-28T10:26:03;9.32;;;5.85;;
24084;SDS011;12268;52.110;5.548;2023-07-28T10:28:38;11.75;;;5.68;;
24084;SDS011;12268;52.110;5.548;2023-07-28T10:31:08;8.82;;;4.65;;
24084;SDS011;12268;52.110;5.548;2023-07-28T10:33:39;7.68;;;4.30;;
24084;SDS011;12268;52.110;5.548;2023-07-28T10:38:47;9.77;;;5.80;;
24084;SDS011;12268;52.110;5.548;2023-07-28T10:41:25;10.30;;;5.30;;
24084;SDS011;12268;52.110;5.548;2023-07-28T10:43:50;9.93;;;7.32;;
24084;SDS011;12268;52.110;5.548;2023-07-28T10:46:17;15.07;;;8.68;;
24084;SDS011;12268;52.110;5.548;2023-07-28T10:48:46;16.85;;;7.43;;
24084;SDS011;12268;52.110;5.548;2023-07-28T10:51:21;11.73;;;7.00;;
24084;SDS011;12268;52.110;5.548;2023-07-28T10:53:50;13.18;;;7.80;;
24084;SDS011;12268;52.110;5.548;2023-07-28T10:56:16;9.48;;;5.82;;
24084;SDS011;12268;52.110;5.548;2023-07-28T10:58:42;12.55;;;7.38;;
24084;SDS011;12268;52.110;5.548;2023-07-28T11:01:07;14.60;;;6.88;;
24084;SDS011;12268;52.110;5.548;2023-07-28T11:03:33;9.82;;;6.18;;
24084;SDS011;12268;52.110;5.548;2023-07-28T11:05:58;10.05;;;7.03;;
24084;SDS011;12268;52.110;5.548;2023-07-28T11:08:25;11.90;;;8.45;;
24084;SDS011;12268;52.110;5.548;2023-07-28T11:10:51;14.77;;;9.73;;
24084;SDS011;12268;52.110;5.548;2023-07-28T11:13:17;15.98;;;11.23;;
24084;SDS011;12268;52.110;5.548;2023-07-28T11:15:42;17.38;;;10.25;;
24084;SDS011;12268;52.110;5.548;2023-07-28T11:18:08;16.17;;;11.07;;
24084;SDS011;12268;52.110;5.548;2023-07-28T11:20:34;17.75;;;12.90;;
24084;SDS011;12268;52.110;5.548;2023-07-28T11:23:03;20.80;;;13.13;;
24084;SDS011;12268;52.110;5.548;2023-07-28T11:25:30;19.88;;;13.82;;
24084;SDS011;12268;52.110;5.548;2023-07-28T11:27:57;19.15;;;13.88;;
24084;SDS011;12268;52.110;5.548;2023-07-28T11:30:25;20.23;;;14.07;;
24084;SDS011;12268;52.110;5.548;2023-07-28T11:32:51;20.08;;;13.70;;
24084;SDS011;12268;52.110;5.548;2023-07-28T11:35:19;22.20;;;14.65;;
24084;SDS011;12268;52.110;5.548;2023-07-28T11:37:47;18.30;;;15.18;;
24084;SDS011;12268;52.110;5.548;2023-07-28T11:40:16;20.05;;;14.48;;
24084;SDS011;12268;52.110;5.548;2023-07-28T11:42:47;17.52;;;12.30;;
24084;SDS011;12268;52.110;5.548;2023-07-28T11:45:16;18.80;;;13.52;;
24084;SDS011;12268;52.110;5.548;2023-07-28T11:50:22;19.75;;;12.65;;
24084;SDS011;12268;52.110;5.548;2023-07-28T11:52:49;21.65;;;13.77;;
24084;SDS011;12268;52.110;5.548;2023-07-28T11:55:14;22.25;;;13.38;;
24084;SDS011;12268;52.110;5.548;2023-07-28T11:57:41;17.27;;;13.60;;
24084;SDS011;12268;52.110;5.548;2023-07-28T12:00:08;21.95;;;12.77;;
24084;SDS011;12268;52.110;5.548;2023-07-28T12:02:34;19.55;;;12.82;;
24084;SDS011;12268;52.110;5.548;2023-07-28T12:05:00;17.60;;;12.45;;
24084;SDS011;12268;52.110;5.548;2023-07-28T12:07:29;16.85;;;12.25;;
24084;SDS011;12268;52.110;5.548;2023-07-28T12:09:56;17.90;;;10.80;;
24084;SDS011;12268;52.110;5.548;2023-07-28T12:12:27;15.95;;;10.68;;
24084;SDS011;12268;52.110;5.548;2023-07-28T12:14:54;14.45;;;9.55;;
24084;SDS011;12268;52.110;5.548;2023-07-28T12:17:21;14.00;;;9.35;;
24084;SDS011;12268;52.110;5.548;2023-07-28T12:19:55;12.10;;;7.88;;
24084;SDS011;12268;52.110;5.548;2023-07-28T12:22:21;10.88;;;7.38;;
24084;SDS011;12268;52.110;5.548;2023-07-28T12:24:47;9.43;;;7.07;;
24084;SDS011;12268;52.110;5.548;2023-07-28T12:27:12;11.68;;;7.93;;
24084;SDS011;12268;52.110;5.548;2023-07-28T12:29:38;14.60;;;8.57;;
24084;SDS011;12268;52.110;5.548;2023-07-28T12:32:04;13.77;;;8.95;;
24084;SDS011;12268;52.110;5.548;2023-07-28T12:34:30;9.27;;;6.93;;
24084;SDS011;12268;52.110;5.548;2023-07-28T12:36:56;11.45;;;7.72;;
24084;SDS011;12268;52.110;5.548;2023-07-28T12:39:21;11.10;;;8.13;;
24084;SDS011;12268;52.110;5.548;2023-07-28T12:41:48;12.93;;;8.43;;
24084;SDS011;12268;52.110;5.548;2023-07-28T12:44:14;9.50;;;8.25;;
24084;SDS011;12268;52.110;5.548;2023-07-28T12:46:39;14.52;;;9.50;;
24084;SDS011;12268;52.110;5.548;2023-07-28T12:49:05;16.00;;;9.05;;
24084;SDS011;12268;52.110;5.548;2023-07-28T12:51:32;9.77;;;7.22;;
24084;SDS011;12268;52.110;5.548;2023-07-28T12:53:57;9.43;;;6.38;;
24084;SDS011;12268;52.110;5.548;2023-07-28T12:56:23;9.80;;;6.43;;
24084;SDS011;12268;52.110;5.548;2023-07-28T12:58:50;10.18;;;7.18;;
24084;SDS011;12268;52.110;5.548;2023-07-28T13:01:16;8.00;;;6.18;;
24084;SDS011;12268;52.110;5.548;2023-07-28T13:03:41;11.13;;;6.95;;
24084;SDS011;12268;52.110;5.548;2023-07-28T13:06:07;7.13;;;6.43;;
24084;SDS011;12268;52.110;5.548;2023-07-28T13:08:32;10.43;;;6.85;;
24084;SDS011;12268;52.110;5.548;2023-07-28T13:10:58;9.80;;;6.57;;
24084;SDS011;12268;52.110;5.548;2023-07-28T13:13:23;10.55;;;8.10;;
24084;SDS011;12268;52.110;5.548;2023-07-28T13:15:49;11.57;;;7.43;;
24084;SDS011;12268;52.110;5.548;2023-07-28T13:18:14;12.40;;;7.93;;
24084;SDS011;12268;52.110;5.548;2023-07-28T13:20:40;10.18;;;7.90;;
24084;SDS011;12268;52.110;5.548;2023-07-28T13:23:05;11.48;;;8.00;;
24084;SDS011;12268;52.110;5.548;2023-07-28T13:25:31;9.68;;;7.70;;
24084;SDS011;12268;52.110;5.548;2023-07-28T13:27:56;9.45;;;7.65;;
24084;SDS011;12268;52.110;5.548;2023-07-28T13:30:22;11.13;;;7.40;;
24084;SDS011;12268;52.110;5.548;2023-07-28T13:32:47;8.88;;;7.32;;
24084;SDS011;12268;52.110;5.548;2023-07-28T13:35:13;8.40;;;6.60;;
24084;SDS011;12268;52.110;5.548;2023-07-28T13:37:39;8.52;;;6.60;;
24084;SDS011;12268;52.110;5.548;2023-07-28T13:40:05;10.57;;;6.53;;
24084;SDS011;12268;52.110;5.548;2023-07-28T13:42:31;8.68;;;7.78;;
24084;SDS011;12268;52.110;5.548;2023-07-28T13:44:56;11.20;;;8.02;;
24084;SDS011;12268;52.110;5.548;2023-07-28T13:47:22;11.43;;;8.50;;
24084;SDS011;12268;52.110;5.548;2023-07-28T13:49:48;9.98;;;8.43;;
24084;SDS011;12268;52.110;5.548;2023-07-28T13:52:13;11.68;;;7.85;;
24084;SDS011;12268;52.110;5.548;2023-07-28T13:54:39;13.63;;;9.35;;
24084;SDS011;12268;52.110;5.548;2023-07-28T13:57:04;12.18;;;9.98;;
24084;SDS011;12268;52.110;5.548;2023-07-28T13:59:30;13.38;;;10.30;;
24084;SDS011;12268;52.110;5.548;2023-07-28T14:01:56;13.63;;;9.93;;
24084;SDS011;12268;52.110;5.548;2023-07-28T14:04:22;9.23;;;8.10;;
24084;SDS011;12268;52.110;5.548;2023-07-28T14:06:48;10.93;;;7.60;;
24084;SDS011;12268;52.110;5.548;2023-07-28T14:09:13;9.88;;;7.68;;
24084;SDS011;12268;52.110;5.548;2023-07-28T14:11:39;12.15;;;7.75;;
24084;SDS011;12268;52.110;5.548;2023-07-28T14:14:04;10.80;;;7.93;;
24084;SDS011;12268;52.110;5.548;2023-07-28T14:16:30;10.70;;;7.65;;
24084;SDS011;12268;52.110;5.548;2023-07-28T14:18:55;9.80;;;7.75;;
24084;SDS011;12268;52.110;5.548;2023-07-28T14:21:21;11.23;;;8.48;;
24084;SDS011;12268;52.110;5.548;2023-07-28T14:23:46;14.13;;;8.50;;
24084;SDS011;12268;52.110;5.548;2023-07-28T14:26:12;14.70;;;8.75;;
24084;SDS011;12268;52.110;5.548;2023-07-28T14:28:37;12.50;;;9.32;;
24084;SDS011;12268;52.110;5.548;2023-07-28T14:31:03;11.15;;;8.07;;
24084;SDS011;12268;52.110;5.548;2023-07-28T14:33:29;12.00;;;8.95;;
24084;SDS011;12268;52.110;5.548;2023-07-28T14:35:55;11.07;;;8.50;;
24084;SDS011;12268;52.110;5.548;2023-07-28T14:38:21;12.98;;;9.43;;
24084;SDS011;12268;52.110;5.548;2023-07-28T14:40:47;12.90;;;10.32;;
24084;SDS011;12268;52.110;5.548;2023-07-28T14:43:14;12.18;;;9.77;;
24084;SDS011;12268;52.110;5.548;2023-07-28T14:45:40;13.85;;;10.10;;
24084;SDS011;12268;52.110;5.548;2023-07-28T14:48:06;17.13;;;11.23;;
24084;SDS011;12268;52.110;5.548;2023-07-28T14:50:32;15.43;;;9.93;;
24084;SDS011;12268;52.110;5.548;2023-07-28T14:52:58;11.45;;;9.40;;
24084;SDS011;12268;52.110;5.548;2023-07-28T14:55:24;13.73;;;9.60;;
24084;SDS011;12268;52.110;5.548;2023-07-28T14:57:50;12.57;;;9.35;;
24084;SDS011;12268;52.110;5.548;2023-07-28T15:00:16;12.57;;;9.30;;
24084;SDS011;12268;52.110;5.548;2023-07-28T15:02:42;16.25;;;8.55;;
24084;SDS011;12268;52.110;5.548;2023-07-28T15:05:08;12.18;;;9.18;;
24084;SDS011;12268;52.110;5.548;2023-07-28T15:07:33;12.48;;;9.43;;
24084;SDS011;12268;52.110;5.548;2023-07-28T15:10:00;12.35;;;9.88;;
24084;SDS011;12268;52.110;5.548;2023-07-28T15:12:27;11.18;;;9.38;;
24084;SDS011;12268;52.110;5.548;2023-07-28T15:14:53;15.93;;;10.07;;
24084;SDS011;12268;52.110;5.548;2023-07-28T15:17:18;12.50;;;9.75;;
24084;SDS011;12268;52.110;5.548;2023-07-28T15:19:44;17.08;;;10.57;;
24084;SDS011;12268;52.110;5.548;2023-07-28T15:22:09;14.70;;;9.77;;
24084;SDS011;12268;52.110;5.548;2023-07-28T15:24:35;13.80;;;10.68;;
24084;SDS011;12268;52.110;5.548;2023-07-28T15:27:00;15.50;;;11.32;;
24084;SDS011;12268;52.110;5.548;2023-07-28T15:29:26;14.30;;;11.65;;
24084;SDS011;12268;52.110;5.548;2023-07-28T15:31:51;16.38;;;12.07;;
24084;SDS011;12268;52.110;5.548;2023-07-28T15:34:18;15.70;;;11.52;;
24084;SDS011;12268;52.110;5.548;2023-07-28T15:36:44;17.05;;;11.70;;
24084;SDS011;12268;52.110;5.548;2023-07-28T15:39:10;16.02;;;11.82;;
24084;SDS011;12268;52.110;5.548;2023-07-28T15:41:35;15.40;;;11.23;;
24084;SDS011;12268;52.110;5.548;2023-07-28T15:44:01;14.38;;;10.48;;
24084;SDS011;12268;52.110;5.548;2023-07-28T15:46:26;14.60;;;10.50;;
24084;SDS011;12268;52.110;5.548;2023-07-28T15:48:52;13.35;;;10.98;;
24084;SDS011;12268;52.110;5.548;2023-07-28T15:51:17;13.57;;;9.95;;
24084;SDS011;12268;52.110;5.548;2023-07-28T15:53:43;16.52;;;11.48;;
24084;SDS011;12268;52.110;5.548;2023-07-28T15:56:08;13.70;;;10.20;;
24084;SDS011;12268;52.110;5.548;2023-07-28T15:58:34;12.82;;;10.27;;
24084;SDS011;12268;52.110;5.548;2023-07-28T16:00:59;12.60;;;9.15;;
24084;SDS011;12268;52.110;5.548;2023-07-28T16:03:25;12.05;;;8.85;;
24084;SDS011;12268;52.110;5.548;2023-07-28T16:05:51;10.85;;;7.05;;
24084;SDS011;12268;52.110;5.548;2023-07-28T16:08:17;8.43;;;5.18;;
24084;SDS011;12268;52.110;5.548;2023-07-28T16:10:42;8.00;;;4.05;;
24084;SDS011;12268;52.110;5.548;2023-07-28T16:13:08;7.82;;;4.82;;
24084;SDS011;12268;52.110;5.548;2023-07-28T16:15:33;7.97;;;4.82;;
24084;SDS011;12268;52.110;5.548;2023-07-28T16:17:59;7.20;;;5.22;;
24084;SDS011;12268;52.110;5.548;2023-07-28T16:20:24;7.43;;;4.05;;
24084;SDS011;12268;52.110;5.548;2023-07-28T16:22:50;9.00;;;4.45;;
24084;SDS011;12268;52.110;5.548;2023-07-28T16:25:17;7.65;;;3.85;;
24084;SDS011;12268;52.110;5.548;2023-07-28T16:27:43;9.43;;;4.13;;
24084;SDS011;12268;52.110;5.548;2023-07-28T16:30:08;6.43;;;3.55;;
24084;SDS011;12268;52.110;5.548;2023-07-28T16:32:35;6.78;;;4.28;;
24084;SDS011;12268;52.110;5.548;2023-07-28T16:35:00;4.60;;;3.13;;